Time;durP1;ratioP1;P1;durP2;ratioP2;P2;SDS_P1;SDS_P2;PMS_P1;PMS_P2;Temp;Humidity;BMP_temperature;BMP_pressure;BME280_temperature;BME280_humidity;BME280_pressure;Samples;Min_cycle;Max_cycle;Signal;HPM_P1;HPM_P2
2022/03/26 00:00:22;;;;;;;51.10;22.75;;;;;;;;;;5049671;28;20032;-62
2022/03/26 00:02:49;;;;;;;48.55;23.60;;;;;;;;;;5043748;28;20037;-62
2022/03/26 00:05:16;;;;;;;49.30;23.67;;;;;;;;;;5026021;28;20506;-62
2022/03/26 00:07:42;;;;;;;47.72;23.38;;;;;;;;;;5053437;28;20119;-62
2022/03/26 00:10:08;;;;;;;36.70;18.63;;;;;;;;;;5042213;28;20048;-62
2022/03/26 00:12:34;;;;;;;31.50;17.20;;;;;;;;;;5048024;28;20482;-62
2022/03/26 00:15:00;;;;;;;41.55;20.13;;;;;;;;;;5003009;28;20045;-62
2022/03/26 00:17:27;;;;;;;39.65;19.98;;;;;;;;;;5034465;28;20042;-62
2022/03/26 00:19:53;;;;;;;40.25;20.63;;;;;;;;;;5038697;28;20141;-62
2022/03/26 00:22:19;;;;;;;38.47;19.23;;;;;;;;;;5034174;28;20135;-62
2022/03/26 00:24:46;;;;;;;39.80;20.58;;;;;;;;;;5054341;28;20041;-62
2022/03/26 00:27:12;;;;;;;47.42;22.63;;;;;;;;;;5041971;28;20638;-62
2022/03/26 00:29:38;;;;;;;46.97;23.45;;;;;;;;;;5034491;28;20036;-62
2022/03/26 00:32:04;;;;;;;38.15;19.08;;;;;;;;;;5029754;28;20072;-62
2022/03/26 00:34:32;;;;;;;44.40;21.25;;;;;;;;;;5042932;28;20034;-63
2022/03/26 00:36:58;;;;;;;46.22;23.73;;;;;;;;;;5047587;28;20036;-62
2022/03/26 00:39:24;;;;;;;43.15;21.33;;;;;;;;;;5039955;28;20137;-62
2022/03/26 00:41:50;;;;;;;42.35;21.98;;;;;;;;;;5035765;28;20037;-62
2022/03/26 00:44:16;;;;;;;47.42;24.20;;;;;;;;;;5054741;28;20044;-62
2022/03/26 00:46:45;;;;;;;40.80;20.63;;;;;;;;;;5042746;28;20045;-62
2022/03/26 00:49:11;;;;;;;39.83;19.48;;;;;;;;;;5033833;28;20072;-62
2022/03/26 00:51:37;;;;;;;44.03;21.88;;;;;;;;;;5034492;28;20069;-62
2022/03/26 00:54:03;;;;;;;46.97;22.23;;;;;;;;;;5053985;28;20087;-62
2022/03/26 00:56:29;;;;;;;42.72;20.67;;;;;;;;;;5027445;28;20510;-62
2022/03/26 00:58:55;;;;;;;46.00;23.23;;;;;;;;;;5041313;28;20040;-62
2022/03/26 01:01:21;;;;;;;47.28;23.00;;;;;;;;;;5034727;28;20037;-62
2022/03/26 01:03:47;;;;;;;46.38;22.98;;;;;;;;;;5050125;28;20123;-62
2022/03/26 01:06:14;;;;;;;43.25;22.90;;;;;;;;;;5038437;28;20120;-62
2022/03/26 01:08:40;;;;;;;43.65;23.50;;;;;;;;;;5035373;28;20041;-62
2022/03/26 01:11:06;;;;;;;49.95;24.00;;;;;;;;;;5045869;28;20033;-62
2022/03/26 01:13:34;;;;;;;49.85;24.33;;;;;;;;;;5037987;28;20041;-62
2022/03/26 01:16:01;;;;;;;51.13;24.85;;;;;;;;;;5034962;28;20441;-62
2022/03/26 01:18:28;;;;;;;51.20;25.48;;;;;;;;;;5015995;28;20049;-62
2022/03/26 01:20:54;;;;;;;50.28;25.70;;;;;;;;;;5034191;28;20038;-62
2022/03/26 01:23:20;;;;;;;50.65;24.45;;;;;;;;;;5046133;28;20037;-62
2022/03/26 01:25:46;;;;;;;53.15;25.83;;;;;;;;;;5036719;28;20041;-62
2022/03/26 01:28:12;;;;;;;52.80;23.65;;;;;;;;;;5032627;28;20037;-63
2022/03/26 01:30:38;;;;;;;51.22;25.60;;;;;;;;;;5034107;28;20048;-62
2022/03/26 01:33:04;;;;;;;48.70;25.48;;;;;;;;;;5033992;28;20042;-62
2022/03/26 01:35:30;;;;;;;52.35;25.17;;;;;;;;;;5015785;28;20183;-62
2022/03/26 01:37:56;;;;;;;52.13;25.95;;;;;;;;;;5015680;28;20407;-62
2022/03/26 01:40:22;;;;;;;51.78;24.77;;;;;;;;;;5033880;28;20126;-62
2022/03/26 01:42:48;;;;;;;50.38;23.77;;;;;;;;;;5032993;28;20551;-62
2022/03/26 01:45:14;;;;;;;49.45;24.30;;;;;;;;;;5033756;28;20053;-62
2022/03/26 01:47:40;;;;;;;44.72;23.13;;;;;;;;;;5027426;28;20390;-62
2022/03/26 01:50:07;;;;;;;45.13;22.20;;;;;;;;;;5027813;28;20045;-62
2022/03/26 01:52:33;;;;;;;46.25;22.98;;;;;;;;;;5017103;28;20120;-62
2022/03/26 01:54:59;;;;;;;47.08;23.02;;;;;;;;;;5033544;28;20069;-62
2022/03/26 01:57:25;;;;;;;48.08;24.63;;;;;;;;;;5032344;28;20133;-62
2022/03/26 01:59:52;;;;;;;51.65;24.58;;;;;;;;;;5032911;28;20092;-62
2022/03/26 02:02:18;;;;;;;48.53;24.27;;;;;;;;;;5031878;28;20037;-62
2022/03/26 02:04:44;;;;;;;48.10;23.38;;;;;;;;;;5033304;28;20059;-62
2022/03/26 02:07:10;;;;;;;42.17;21.35;;;;;;;;;;5022266;28;20037;-62
2022/03/26 02:09:36;;;;;;;44.50;21.35;;;;;;;;;;5029173;28;20068;-62
2022/03/26 02:12:04;;;;;;;49.00;21.95;;;;;;;;;;5030618;28;20037;-62
2022/03/26 02:14:30;;;;;;;44.70;21.88;;;;;;;;;;5032828;28;20052;-62
2022/03/26 02:16:56;;;;;;;46.10;22.58;;;;;;;;;;5033016;28;20041;-62
2022/03/26 02:19:22;;;;;;;51.33;24.33;;;;;;;;;;5030401;28;20052;-62
2022/03/26 02:21:49;;;;;;;48.78;23.92;;;;;;;;;;5032589;28;20037;-62
2022/03/26 02:24:15;;;;;;;52.60;24.65;;;;;;;;;;5032432;28;20557;-62
2022/03/26 02:26:42;;;;;;;43.95;21.90;;;;;;;;;;5014246;28;20049;-62
2022/03/26 02:29:12;;;;;;;44.97;22.83;;;;;;;;;;5032257;28;20487;-62
2022/03/26 02:31:38;;;;;;;50.25;24.58;;;;;;;;;;5031949;28;20116;-62
2022/03/26 02:34:05;;;;;;;52.67;25.05;;;;;;;;;;5028527;28;20439;-62
2022/03/26 02:36:31;;;;;;;56.05;26.15;;;;;;;;;;5031534;28;20038;-62
2022/03/26 02:38:57;;;;;;;54.70;26.58;;;;;;;;;;5031950;28;20069;-62
2022/03/26 02:41:23;;;;;;;55.17;25.92;;;;;;;;;;5033239;28;20052;-62
2022/03/26 02:43:49;;;;;;;52.03;25.23;;;;;;;;;;5032747;28;20044;-62
2022/03/26 02:46:15;;;;;;;53.05;24.35;;;;;;;;;;5031582;28;20348;-62
2022/03/26 02:48:44;;;;;;;48.15;23.35;;;;;;;;;;5030712;28;20038;-62
2022/03/26 02:51:10;;;;;;;53.22;25.33;;;;;;;;;;5022403;28;20479;-62
2022/03/26 02:53:36;;;;;;;53.83;25.70;;;;;;;;;;5016029;28;20044;-62
2022/03/26 02:56:02;;;;;;;52.50;24.92;;;;;;;;;;5031720;28;20051;-62
2022/03/26 02:58:28;;;;;;;53.35;24.55;;;;;;;;;;5031915;28;20041;-62
2022/03/26 03:00:54;;;;;;;55.00;26.40;;;;;;;;;;5029537;28;20075;-63
2022/03/26 03:03:19;;;;;;;54.20;26.45;;;;;;;;;;5028849;28;20041;-62
2022/03/26 03:05:46;;;;;;;58.55;26.70;;;;;;;;;;5032352;28;20069;-62
2022/03/26 03:08:14;;;;;;;56.95;26.90;;;;;;;;;;5029112;28;20041;-62
2022/03/26 03:10:40;;;;;;;59.22;26.63;;;;;;;;;;5032494;28;20047;-62
2022/03/26 03:13:06;;;;;;;59.15;27.63;;;;;;;;;;5033570;28;20110;-62
2022/03/26 03:15:32;;;;;;;56.72;26.77;;;;;;;;;;5031005;28;20098;-62
2022/03/26 03:17:58;;;;;;;59.58;26.95;;;;;;;;;;5033111;28;20040;-62
2022/03/26 03:20:25;;;;;;;59.92;27.58;;;;;;;;;;5027752;28;20116;-62
2022/03/26 03:22:51;;;;;;;58.75;28.42;;;;;;;;;;5039150;28;20037;-62
2022/03/26 03:25:18;;;;;;;61.92;28.98;;;;;;;;;;5048326;28;20045;-62
2022/03/26 03:27:44;;;;;;;59.25;28.25;;;;;;;;;;5021830;28;20066;-63
2022/03/26 03:30:11;;;;;;;58.80;28.08;;;;;;;;;;5034114;28;20049;-62
2022/03/26 03:32:37;;;;;;;58.15;28.02;;;;;;;;;;5044134;28;20045;-62
2022/03/26 03:35:05;;;;;;;61.33;28.52;;;;;;;;;;5031562;28;20046;-62
2022/03/26 03:37:34;;;;;;;59.17;28.15;;;;;;;;;;5031506;28;20132;-62
2022/03/26 03:40:00;;;;;;;55.72;26.92;;;;;;;;;;5037006;28;20124;-62
2022/03/26 03:42:26;;;;;;;57.67;27.52;;;;;;;;;;5049415;28;20074;-62
2022/03/26 03:44:52;;;;;;;58.75;28.10;;;;;;;;;;5050365;28;20508;-62
2022/03/26 03:47:18;;;;;;;63.28;28.70;;;;;;;;;;5013720;28;20041;-62
2022/03/26 03:49:44;;;;;;;64.32;29.30;;;;;;;;;;5023836;28;20415;-62
2022/03/26 03:52:10;;;;;;;69.68;31.52;;;;;;;;;;5046657;28;20172;-61
2022/03/26 03:54:36;;;;;;;51.90;25.08;;;;;;;;;;5034503;28;20041;-62
2022/03/26 03:57:02;;;;;;;52.47;25.50;;;;;;;;;;5048726;28;20070;-62
2022/03/26 03:59:28;;;;;;;61.03;27.98;;;;;;;;;;5049716;28;20033;-62
2022/03/26 04:01:54;;;;;;;62.15;28.80;;;;;;;;;;5042534;28;20116;-62
2022/03/26 04:04:20;;;;;;;56.70;28.67;;;;;;;;;;5024236;28;20042;-62
2022/03/26 04:06:46;;;;;;;62.85;29.60;;;;;;;;;;5032441;28;20082;-62
2022/03/26 04:09:12;;;;;;;69.90;30.25;;;;;;;;;;5030863;28;20092;-62
2022/03/26 04:11:38;;;;;;;67.43;29.80;;;;;;;;;;5013907;28;20296;-62
2022/03/26 04:14:05;;;;;;;61.58;29.45;;;;;;;;;;5032712;28;20092;-62
2022/03/26 04:16:31;;;;;;;62.45;29.25;;;;;;;;;;5014084;28;20049;-62
2022/03/26 04:18:58;;;;;;;58.10;29.27;;;;;;;;;;5029451;28;20099;-62
2022/03/26 04:21:24;;;;;;;56.97;27.67;;;;;;;;;;5029624;28;20043;-62
2022/03/26 04:23:50;;;;;;;63.15;28.98;;;;;;;;;;5013892;28;20431;-62
2022/03/26 04:26:16;;;;;;;65.72;30.58;;;;;;;;;;5034985;28;20547;-62
2022/03/26 04:28:42;;;;;;;60.80;28.70;;;;;;;;;;5030871;28;20403;-62
2022/03/26 04:31:09;;;;;;;61.13;29.90;;;;;;;;;;5030884;28;20041;-62
2022/03/26 04:33:35;;;;;;;59.78;29.98;;;;;;;;;;5039260;28;20052;-62
2022/03/26 04:36:01;;;;;;;68.25;30.90;;;;;;;;;;5031569;28;20046;-62
2022/03/26 04:38:28;;;;;;;62.45;30.40;;;;;;;;;;5037965;28;20052;-62
2022/03/26 04:40:54;;;;;;;58.53;27.52;;;;;;;;;;5050860;28;20044;-61
2022/03/26 04:43:21;;;;;;;58.10;26.55;;;;;;;;;;5035847;28;20112;-62
2022/03/26 04:45:47;;;;;;;62.85;28.67;;;;;;;;;;5038552;28;20560;-62
2022/03/26 04:48:13;;;;;;;57.47;28.10;;;;;;;;;;5030320;28;20561;-61
2022/03/26 04:50:39;;;;;;;57.65;28.60;;;;;;;;;;5034056;28;20045;-62
2022/03/26 04:53:05;;;;;;;63.03;27.48;;;;;;;;;;5035851;28;20328;-62
2022/03/26 04:55:32;;;;;;;57.00;27.52;;;;;;;;;;5040653;28;20033;-62
2022/03/26 04:57:58;;;;;;;58.97;27.00;;;;;;;;;;5036355;28;20415;-62
2022/03/26 05:00:24;;;;;;;53.22;26.13;;;;;;;;;;5035122;28;20034;-62
2022/03/26 05:02:50;;;;;;;56.58;26.08;;;;;;;;;;5040304;28;20038;-62
2022/03/26 05:05:16;;;;;;;53.42;24.90;;;;;;;;;;5033430;28;20118;-62
2022/03/26 05:07:45;;;;;;;52.47;25.95;;;;;;;;;;5050762;28;20068;-62
2022/03/26 05:10:11;;;;;;;55.78;25.52;;;;;;;;;;5034478;28;20038;-62
2022/03/26 05:12:37;;;;;;;53.85;25.13;;;;;;;;;;5041023;28;20067;-62
2022/03/26 05:15:03;;;;;;;55.30;24.80;;;;;;;;;;5048172;28;20131;-61
2022/03/26 05:17:30;;;;;;;53.50;25.42;;;;;;;;;;5034014;28;20053;-62
2022/03/26 05:19:56;;;;;;;50.47;25.30;;;;;;;;;;5033871;28;20121;-62
2022/03/26 05:22:21;;;;;;;54.42;26.52;;;;;;;;;;5047026;28;20037;-62
2022/03/26 05:24:47;;;;;;;63.47;27.08;;;;;;;;;;5043277;28;20060;-62
2022/03/26 05:27:13;;;;;;;48.00;23.70;;;;;;;;;;5052701;28;20037;-62
2022/03/26 05:29:40;;;;;;;52.47;24.65;;;;;;;;;;5036412;28;20033;-62
2022/03/26 05:32:06;;;;;;;51.97;25.80;;;;;;;;;;5031167;28;20232;-62
2022/03/26 05:34:33;;;;;;;62.55;29.73;;;;;;;;;;5030236;28;20053;-61
2022/03/26 05:36:59;;;;;;;65.15;28.55;;;;;;;;;;5033584;28;20120;-62
2022/03/26 05:39:25;;;;;;;64.57;30.35;;;;;;;;;;5034330;28;20116;-62
2022/03/26 05:41:51;;;;;;;70.32;32.17;;;;;;;;;;5040187;28;20091;-61
2022/03/26 05:44:17;;;;;;;72.47;33.05;;;;;;;;;;5024485;28;20081;-62
2022/03/26 05:46:43;;;;;;;71.30;32.47;;;;;;;;;;5050051;28;20077;-62
2022/03/26 05:49:09;;;;;;;69.07;31.65;;;;;;;;;;5073893;22;20132;-61
2022/03/26 05:51:35;;;;;;;73.03;33.20;;;;;;;;;;5085992;28;20086;-60
2022/03/26 05:54:01;;;;;;;74.97;32.78;;;;;;;;;;5073199;28;20072;-61
2022/03/26 05:56:28;;;;;;;66.82;30.30;;;;;;;;;;5085573;28;20071;-61
2022/03/26 05:58:54;;;;;;;74.70;32.15;;;;;;;;;;5072956;28;20036;-61
2022/03/26 06:01:21;;;;;;;61.45;27.38;;;;;;;;;;5071187;28;20131;-61
2022/03/26 06:03:47;;;;;;;65.28;29.70;;;;;;;;;;5072361;28;20056;-61
2022/03/26 06:06:13;;;;;;;71.47;31.25;;;;;;;;;;5072885;28;20040;-61
2022/03/26 06:08:39;;;;;;;67.47;30.13;;;;;;;;;;5072916;28;20116;-61
2022/03/26 06:11:05;;;;;;;59.47;27.63;;;;;;;;;;5071079;28;20040;-60
2022/03/26 06:13:31;;;;;;;69.45;31.83;;;;;;;;;;5072659;28;20076;-61
2022/03/26 06:15:57;;;;;;;70.40;30.65;;;;;;;;;;5071924;28;20040;-61
2022/03/26 06:18:23;;;;;;;67.70;31.17;;;;;;;;;;5072432;28;20068;-61
2022/03/26 06:20:49;;;;;;;65.03;29.95;;;;;;;;;;5072437;28;20040;-61
2022/03/26 06:23:15;;;;;;;69.43;31.85;;;;;;;;;;5072549;28;20444;-61
2022/03/26 06:25:41;;;;;;;72.80;32.58;;;;;;;;;;5070825;28;20033;-61
2022/03/26 06:28:07;;;;;;;83.85;36.38;;;;;;;;;;5071880;28;20064;-61
2022/03/26 06:30:33;;;;;;;92.25;39.13;;;;;;;;;;5072022;28;20510;-61
2022/03/26 06:32:59;;;;;;;93.90;41.22;;;;;;;;;;5072582;28;20050;-61
2022/03/26 06:35:25;;;;;;;108.13;43.65;;;;;;;;;;5072131;28;20123;-61
2022/03/26 06:37:51;;;;;;;109.45;46.00;;;;;;;;;;5071966;28;20098;-61
2022/03/26 06:40:17;;;;;;;108.43;47.28;;;;;;;;;;5070774;28;20040;-61
2022/03/26 06:42:43;;;;;;;129.25;55.78;;;;;;;;;;5071715;28;20045;-61
2022/03/26 06:45:09;;;;;;;125.97;51.33;;;;;;;;;;5071097;28;20036;-61
2022/03/26 06:47:35;;;;;;;131.15;54.92;;;;;;;;;;5071885;28;20047;-61
2022/03/26 06:50:01;;;;;;;137.90;56.80;;;;;;;;;;5072238;28;20043;-61
2022/03/26 06:52:27;;;;;;;139.43;58.50;;;;;;;;;;5071654;28;20036;-61
2022/03/26 06:54:53;;;;;;;131.48;55.40;;;;;;;;;;5069114;28;20037;-61
2022/03/26 06:57:19;;;;;;;135.90;56.15;;;;;;;;;;5071571;28;20119;-61
2022/03/26 06:59:45;;;;;;;125.80;53.95;;;;;;;;;;5071674;28;20036;-61
2022/03/26 07:02:12;;;;;;;136.65;59.58;;;;;;;;;;5071487;28;20043;-61
2022/03/26 07:04:38;;;;;;;140.02;56.78;;;;;;;;;;5069801;28;20059;-61
2022/03/26 07:07:05;;;;;;;137.43;58.05;;;;;;;;;;5070549;28;20078;-61
2022/03/26 07:09:31;;;;;;;136.63;59.63;;;;;;;;;;5070438;28;20124;-61
2022/03/26 07:11:57;;;;;;;133.55;59.53;;;;;;;;;;5070454;28;20612;-61
2022/03/26 07:14:23;;;;;;;141.90;62.15;;;;;;;;;;5061848;28;20065;-61
2022/03/26 07:16:49;;;;;;;155.90;65.43;;;;;;;;;;5056905;28;20036;-61
2022/03/26 07:19:15;;;;;;;149.57;64.32;;;;;;;;;;5071095;28;20040;-61
2022/03/26 07:21:41;;;;;;;141.95;62.47;;;;;;;;;;5068512;28;20452;-61
2022/03/26 07:24:07;;;;;;;155.70;66.25;;;;;;;;;;5067631;28;20095;-61
2022/03/26 07:26:33;;;;;;;143.43;62.97;;;;;;;;;;5069314;28;20036;-61
2022/03/26 07:29:00;;;;;;;151.82;64.38;;;;;;;;;;5071643;28;20036;-61
2022/03/26 07:31:26;;;;;;;152.55;63.40;;;;;;;;;;5071843;28;20040;-62
2022/03/26 07:33:52;;;;;;;148.50;64.38;;;;;;;;;;5071066;28;20375;-61
2022/03/26 07:36:18;;;;;;;145.55;62.00;;;;;;;;;;5069979;28;20103;-61
2022/03/26 07:38:44;;;;;;;142.68;61.97;;;;;;;;;;5071137;28;20402;-61
2022/03/26 07:41:10;;;;;;;145.68;60.33;;;;;;;;;;5069479;28;20083;-61
2022/03/26 07:43:36;;;;;;;134.30;59.83;;;;;;;;;;5069825;28;20072;-61
2022/03/26 07:46:02;;;;;;;135.65;57.72;;;;;;;;;;5070633;28;20041;-61
2022/03/26 07:48:28;;;;;;;130.85;56.70;;;;;;;;;;5071155;28;20044;-61
2022/03/26 07:50:54;;;;;;;134.68;58.10;;;;;;;;;;5066712;28;20402;-61
2022/03/26 07:53:22;;;;;;;130.25;56.38;;;;;;;;;;5068065;28;20048;-62
2022/03/26 07:55:48;;;;;;;125.55;54.28;;;;;;;;;;5070591;28;20041;-61
2022/03/26 07:58:14;;;;;;;117.32;53.10;;;;;;;;;;5071353;28;20047;-61
2022/03/26 08:00:40;;;;;;;129.63;54.50;;;;;;;;;;5068579;28;20028;-61
2022/03/26 08:03:06;;;;;;;119.25;54.58;;;;;;;;;;5066814;28;20040;-61
2022/03/26 08:05:32;;;;;;;117.72;50.85;;;;;;;;;;5061040;28;20041;-61
2022/03/26 08:07:58;;;;;;;113.47;50.20;;;;;;;;;;5067603;28;20499;-62
2022/03/26 08:10:24;;;;;;;113.28;48.50;;;;;;;;;;5051405;28;20130;-61
2022/03/26 08:12:50;;;;;;;111.47;48.72;;;;;;;;;;5065046;28;20115;-61
2022/03/26 08:15:16;;;;;;;111.15;47.90;;;;;;;;;;5070204;28;20048;-61
2022/03/26 08:17:42;;;;;;;101.80;45.38;;;;;;;;;;5070106;28;20036;-61
2022/03/26 08:20:08;;;;;;;111.32;47.72;;;;;;;;;;5070875;28;20044;-62
2022/03/26 08:22:34;;;;;;;90.05;41.58;;;;;;;;;;5070833;28;20036;-62
2022/03/26 08:25:01;;;;;;;92.22;39.95;;;;;;;;;;5071768;28;20124;-62
2022/03/26 08:27:27;;;;;;;83.22;38.42;;;;;;;;;;5070799;28;20049;-61
2022/03/26 08:29:53;;;;;;;89.47;39.53;;;;;;;;;;5074381;28;20490;-62
2022/03/26 08:32:19;;;;;;;90.30;39.10;;;;;;;;;;5068323;28;20054;-62
2022/03/26 08:34:45;;;;;;;87.05;36.60;;;;;;;;;;5072700;28;20036;-61
2022/03/26 08:37:11;;;;;;;88.22;37.35;;;;;;;;;;5068512;28;20041;-62
2022/03/26 08:39:37;;;;;;;85.18;37.97;;;;;;;;;;5073716;28;20029;-61
2022/03/26 08:42:04;;;;;;;81.20;35.60;;;;;;;;;;5074789;28;20041;-61
2022/03/26 08:44:30;;;;;;;81.13;35.42;;;;;;;;;;5073344;28;20044;-62
2022/03/26 08:46:57;;;;;;;80.93;36.38;;;;;;;;;;5072235;28;20036;-61
2022/03/26 08:49:23;;;;;;;77.38;34.22;;;;;;;;;;5073416;28;20047;-61
2022/03/26 08:51:49;;;;;;;81.40;37.28;;;;;;;;;;5068367;28;20037;-61
2022/03/26 08:54:15;;;;;;;80.35;35.78;;;;;;;;;;5070010;28;20097;-61
2022/03/26 08:56:41;;;;;;;82.15;35.97;;;;;;;;;;5073103;28;20040;-61
2022/03/26 08:59:07;;;;;;;73.38;32.22;;;;;;;;;;5073461;28;20040;-62
2022/03/26 09:01:33;;;;;;;75.15;34.70;;;;;;;;;;5072442;28;20047;-61
2022/03/26 09:03:59;;;;;;;67.40;30.90;;;;;;;;;;5064616;28;20147;-61
2022/03/26 09:06:25;;;;;;;79.55;33.00;;;;;;;;;;5071925;28;20115;-62
2022/03/26 09:08:51;;;;;;;67.18;29.55;;;;;;;;;;5068465;28;20094;-61
2022/03/26 09:11:17;;;;;;;63.05;28.98;;;;;;;;;;5073471;28;20091;-63
2022/03/26 09:13:43;;;;;;;61.80;29.67;;;;;;;;;;5071069;28;20043;-62
2022/03/26 09:16:09;;;;;;;61.20;27.58;;;;;;;;;;5072171;28;20041;-61
2022/03/26 09:18:35;;;;;;;68.90;29.98;;;;;;;;;;5072221;28;20036;-62
2022/03/26 09:21:02;;;;;;;75.57;29.70;;;;;;;;;;5070951;28;20102;-62
2022/03/26 09:23:28;;;;;;;66.85;29.65;;;;;;;;;;5065528;28;20482;-61
2022/03/26 09:25:54;;;;;;;60.00;26.88;;;;;;;;;;5060297;28;20071;-62
2022/03/26 09:28:20;;;;;;;60.95;27.05;;;;;;;;;;5064598;28;20028;-62
2022/03/26 09:30:46;;;;;;;56.38;26.85;;;;;;;;;;5070556;28;20085;-62
2022/03/26 09:33:12;;;;;;;57.88;26.05;;;;;;;;;;5071575;28;20040;-62
2022/03/26 09:35:38;;;;;;;64.63;28.20;;;;;;;;;;5068936;28;20036;-62
2022/03/26 09:38:04;;;;;;;59.42;27.08;;;;;;;;;;5053884;28;20082;-62
2022/03/26 09:40:32;;;;;;;56.08;26.88;;;;;;;;;;5070667;28;20032;-62
2022/03/26 09:42:58;;;;;;;60.55;27.73;;;;;;;;;;5073429;28;20110;-62
2022/03/26 09:45:24;;;;;;;46.47;22.05;;;;;;;;;;5066753;28;20073;-63
2022/03/26 09:47:52;;;;;;;48.33;22.25;;;;;;;;;;5071011;28;20036;-62
2022/03/26 09:50:19;;;;;;;49.28;21.60;;;;;;;;;;5072694;28;20410;-62
2022/03/26 09:52:45;;;;;;;47.25;21.73;;;;;;;;;;5071703;28;20048;-63
2022/03/26 09:55:12;;;;;;;43.92;20.60;;;;;;;;;;5073205;28;20212;-62
2022/03/26 09:57:38;;;;;;;44.72;21.98;;;;;;;;;;5070279;28;20434;-63
2022/03/26 10:00:04;;;;;;;40.67;21.20;;;;;;;;;;5070828;28;20036;-63
2022/03/26 10:02:30;;;;;;;38.15;19.73;;;;;;;;;;5069507;28;20024;-63
2022/03/26 10:04:56;;;;;;;37.95;20.88;;;;;;;;;;5071888;28;20501;-62
2022/03/26 10:07:29;;;;;;;36.22;20.30;;;;;;;;;;5072135;28;20044;-63
2022/03/26 10:09:56;;;;;;;40.15;20.85;;;;;;;;;;5069959;28;20029;-62
2022/03/26 10:12:24;;;;;;;34.92;19.13;;;;;;;;;;5072162;28;20074;-62
2022/03/26 10:15:06;;;;;;;42.20;21.60;;;;;;;;;;5069335;28;20048;-62
2022/03/26 10:17:34;;;;;;;40.83;21.00;;;;;;;;;;5066093;28;20051;-62
2022/03/26 10:20:03;;;;;;;39.08;21.10;;;;;;;;;;5065112;28;20466;-62
2022/03/26 10:22:35;;;;;;;37.40;19.73;;;;;;;;;;5072471;28;20028;-62
2022/03/26 10:25:04;;;;;;;34.35;18.88;;;;;;;;;;5072896;28;20040;-62
2022/03/26 10:27:34;;;;;;;34.40;18.77;;;;;;;;;;5071787;28;20487;-62
2022/03/26 10:30:00;;;;;;;35.67;18.27;;;;;;;;;;5072366;28;20040;-62
2022/03/26 10:32:41;;;;;;;34.85;17.95;;;;;;;;;;5067221;28;20036;-62
2022/03/26 10:35:07;;;;;;;33.03;18.63;;;;;;;;;;5072626;28;20072;-62
2022/03/26 10:37:46;;;;;;;30.83;16.27;;;;;;;;;;5070760;28;20037;-62
2022/03/26 10:40:16;;;;;;;30.80;16.77;;;;;;;;;;5072122;28;20041;-62
2022/03/26 10:42:42;;;;;;;24.10;15.70;;;;;;;;;;5072262;28;20048;-63
2022/03/26 10:45:14;;;;;;;31.33;16.08;;;;;;;;;;5070462;28;20124;-62
2022/03/26 10:47:40;;;;;;;28.13;17.25;;;;;;;;;;5067144;28;20040;-62
2022/03/26 10:50:06;;;;;;;30.33;18.13;;;;;;;;;;5069936;28;20036;-62
2022/03/26 10:52:32;;;;;;;25.30;15.45;;;;;;;;;;5072116;28;20043;-62
2022/03/26 10:55:00;;;;;;;27.65;15.48;;;;;;;;;;5069847;28;20040;-62
2022/03/26 10:57:26;;;;;;;28.17;16.42;;;;;;;;;;5071261;28;20032;-62
2022/03/26 10:59:53;;;;;;;22.50;14.20;;;;;;;;;;5071907;28;20541;-62
2022/03/26 11:02:19;;;;;;;26.45;15.50;;;;;;;;;;5071854;28;20036;-63
2022/03/26 11:04:45;;;;;;;24.67;14.65;;;;;;;;;;5071442;28;20039;-62
2022/03/26 11:07:11;;;;;;;26.92;15.90;;;;;;;;;;5061111;28;20044;-62
2022/03/26 11:09:38;;;;;;;24.20;14.30;;;;;;;;;;5070917;28;20115;-62
2022/03/26 11:12:05;;;;;;;25.90;15.80;;;;;;;;;;5071754;28;20490;-60
2022/03/26 11:14:31;;;;;;;27.40;15.85;;;;;;;;;;5071840;28;20047;-60
2022/03/26 11:17:26;;;;;;;29.90;16.17;;;;;;;;;;5059529;28;20049;-60
2022/03/26 11:20:05;;;;;;;26.00;15.70;;;;;;;;;;5057808;28;20058;-60
2022/03/26 11:22:35;;;;;;;25.63;15.60;;;;;;;;;;5065092;28;20393;-60
2022/03/26 11:25:14;;;;;;;21.20;12.30;;;;;;;;;;5071539;28;20036;-60
2022/03/26 11:28:02;;;;;;;24.80;14.52;;;;;;;;;;5071593;28;20478;-60
2022/03/26 11:30:41;;;;;;;23.55;14.50;;;;;;;;;;5071570;28;20133;-60
2022/03/26 11:33:14;;;;;;;26.20;14.80;;;;;;;;;;5071100;28;20044;-60
2022/03/26 11:35:56;;;;;;;20.13;12.73;;;;;;;;;;5070086;28;20106;-60
2022/03/26 11:38:23;;;;;;;20.90;13.02;;;;;;;;;;5069448;28;20048;-60
2022/03/26 11:40:54;;;;;;;20.38;13.38;;;;;;;;;;5071392;28;20040;-59
2022/03/26 11:43:43;;;;;;;24.38;13.07;;;;;;;;;;5070957;28;20521;-60
2022/03/26 11:51:40;;;;;;;18.63;11.73;;;;;;;;;;5029422;28;20048;-63
2022/03/26 11:54:13;;;;;;;22.80;12.85;;;;;;;;;;5041493;28;20491;-63
2022/03/26 11:56:40;;;;;;;21.90;12.50;;;;;;;;;;5045572;28;20036;-63
2022/03/26 11:59:20;;;;;;;20.63;12.43;;;;;;;;;;5035786;28;20041;-63
2022/03/26 12:01:49;;;;;;;22.63;14.27;;;;;;;;;;5043268;28;20045;-63
2022/03/26 12:04:19;;;;;;;22.05;12.50;;;;;;;;;;5059711;28;20037;-63
2022/03/26 12:06:51;;;;;;;24.50;14.25;;;;;;;;;;5075102;28;20040;-63
2022/03/26 12:09:35;;;;;;;21.45;14.00;;;;;;;;;;5041647;28;20095;-60
2022/03/26 12:12:10;;;;;;;18.58;12.57;;;;;;;;;;5038327;28;20056;-60
2022/03/26 12:14:56;;;;;;;19.38;11.93;;;;;;;;;;5053315;28;20375;-60
2022/03/26 12:17:40;;;;;;;21.60;12.35;;;;;;;;;;5053902;28;20468;-61
2022/03/26 12:20:26;;;;;;;19.70;11.55;;;;;;;;;;5038249;28;20056;-61
2022/03/26 12:23:10;;;;;;;15.38;9.90;;;;;;;;;;5055313;28;20122;-61
2022/03/26 12:25:46;;;;;;;16.65;10.38;;;;;;;;;;5054980;28;20449;-60
2022/03/26 12:28:12;;;;;;;16.10;10.43;;;;;;;;;;5054826;28;20049;-61
2022/03/26 12:30:43;;;;;;;16.92;10.43;;;;;;;;;;5054451;28;20037;-61
2022/03/26 12:33:11;;;;;;;12.95;8.85;;;;;;;;;;5045708;28;20047;-61
2022/03/26 12:35:38;;;;;;;15.10;9.40;;;;;;;;;;5054073;28;20041;-61
2022/03/26 12:38:04;;;;;;;16.48;10.93;;;;;;;;;;5054253;28;20045;-61
2022/03/26 12:40:31;;;;;;;17.58;11.02;;;;;;;;;;5037064;28;20394;-60
2022/03/26 12:42:57;;;;;;;13.93;8.73;;;;;;;;;;5037108;28;20048;-61
2022/03/26 12:45:23;;;;;;;27.02;10.27;;;;;;;;;;5054160;28;20577;-61
2022/03/26 12:47:50;;;;;;;14.48;8.52;;;;;;;;;;5046413;28;20119;-61
2022/03/26 12:50:22;;;;;;;13.27;8.93;;;;;;;;;;5054090;28;20041;-60
2022/03/26 12:52:49;;;;;;;14.20;9.10;;;;;;;;;;5054717;28;20037;-61
2022/03/26 12:55:16;;;;;;;11.55;8.48;;;;;;;;;;5054658;28;20045;-61
2022/03/26 13:00:28;;;;;;;14.90;8.98;;;;;;;;;;5049816;28;20042;-62
2022/03/26 13:03:04;;;;;;;16.20;9.30;;;;;;;;;;5049859;28;20041;-62
2022/03/26 13:05:30;;;;;;;15.35;9.43;;;;;;;;;;5054158;28;20093;-62
2022/03/26 13:07:57;;;;;;;12.45;7.95;;;;;;;;;;5053760;28;20043;-62
2022/03/26 13:10:33;;;;;;;13.18;7.03;;;;;;;;;;5053038;28;20037;-62
2022/03/26 13:12:59;;;;;;;9.55;6.68;;;;;;;;;;5054683;28;20398;-62
2022/03/26 13:15:25;;;;;;;11.88;7.43;;;;;;;;;;5053191;28;20041;-62
2022/03/26 13:17:51;;;;;;;13.85;7.68;;;;;;;;;;5053463;28;20048;-62
2022/03/26 13:20:28;;;;;;;11.32;6.57;;;;;;;;;;5053550;28;20045;-62
2022/03/26 13:22:57;;;;;;;5.60;4.40;;;;;;;;;;5035912;28;20479;-62
2022/03/26 13:25:23;;;;;;;6.45;4.10;;;;;;;;;;5053967;28;20045;-62
2022/03/26 13:27:49;;;;;;;8.20;4.82;;;;;;;;;;5036262;28;20041;-62
2022/03/26 13:30:16;;;;;;;8.75;5.30;;;;;;;;;;5052833;28;20041;-62
2022/03/26 13:32:43;;;;;;;8.98;4.90;;;;;;;;;;5053635;28;20439;-62
2022/03/26 13:35:11;;;;;;;8.07;4.97;;;;;;;;;;5052390;28;20047;-62
2022/03/26 13:37:37;;;;;;;7.43;4.15;;;;;;;;;;5053644;28;20044;-62
2022/03/26 13:40:04;;;;;;;6.40;4.28;;;;;;;;;;5053168;28;20041;-62
2022/03/26 13:42:30;;;;;;;7.63;4.72;;;;;;;;;;5050813;28;20045;-62
2022/03/26 13:44:57;;;;;;;8.27;5.18;;;;;;;;;;5050788;28;20033;-62
2022/03/26 13:47:33;;;;;;;9.23;4.40;;;;;;;;;;5053449;28;20033;-62
2022/03/26 13:50:04;;;;;;;8.95;4.63;;;;;;;;;;5053058;28;20041;-63
2022/03/26 13:52:30;;;;;;;;;;;;;;;;;;5025597;28;20487;-62
2022/03/26 13:54:56;;;;;;;7.00;4.20;;;;;;;;;;5033773;28;19923;-62
2022/03/26 13:57:30;;;;;;;6.70;5.18;;;;;;;;;;5035256;28;20091;-62
2022/03/26 13:59:56;;;;;;;7.85;4.88;;;;;;;;;;5039161;28;20072;-62
2022/03/26 14:02:26;;;;;;;6.38;4.45;;;;;;;;;;5036379;28;20491;-62
2022/03/26 14:04:52;;;;;;;6.90;4.60;;;;;;;;;;5052608;28;20056;-62
2022/03/26 14:07:18;;;;;;;8.73;4.90;;;;;;;;;;5035760;28;20215;-62
2022/03/26 14:09:54;;;;;;;7.03;4.90;;;;;;;;;;5052744;28;20029;-63
2022/03/26 14:12:20;;;;;;;7.80;4.88;;;;;;;;;;5043973;28;20034;-62
2022/03/26 14:14:46;;;;;;;8.57;5.03;;;;;;;;;;5052101;28;20040;-62
2022/03/26 14:17:12;;;;;;;7.22;4.60;;;;;;;;;;5053357;28;20194;-62
2022/03/26 14:19:38;;;;;;;6.78;4.45;;;;;;;;;;5034866;28;20041;-62
2022/03/26 14:22:05;;;;;;;8.82;4.32;;;;;;;;;;5052321;28;20045;-62
2022/03/26 14:24:32;;;;;;;6.40;4.15;;;;;;;;;;5035125;28;20045;-62
2022/03/26 14:26:58;;;;;;;7.30;4.13;;;;;;;;;;5034074;28;20036;-62